Terminal Aerodrome Forecast
Issued by NWS Bismarck, ND

Home | Current Version | Previous Version | Text Only | Print | Product List | Glossary On
Versions: 1 2 3 4 5 6 7 8 9 10 11 12 13 14 15 16 17 18
000
FTUS43 KBIS 221800 AAA
TAFISN
TAF AMD
KISN 221852Z 2219/2318 33014G19KT P6SM OVC011
      TEMPO 2219/2221 4SM -SN BR OVC009
     FM222100 35017G23KT 3SM -SN OVC015
     FM230300 35015KT P6SM OVC015
     FM231000 32011KT P6SM OVC012=

USA.gov is the U.S. government's official web portal to all federal, state and local government web resources and services.